Lufkin, TX

5:15 AM CDT on August 31, 2014 (GMT -0500)
Angelina County | Change Station
CLOSE
Current Station
Airport
Location: Lufkin,
Elevation: 289 ft
Nearby Weather Stations

Elev 289 ft 31.24 °N, 94.75 °W | Updated 10 minutes ago

Mostly Cloudy
Mostly Cloudy
75 °F
Feels Like 75 °F
N
4
Wind Variable Wind from East

Today
High -- | Low -- °F
--% Chance of Precip.
Yesterday
High -- | Low -- °F
Precip. -- in
6:54 AM 7:43 PM
Waxing Crescent, 29% visible
Pressure 29.98 in
Visibility 7.0 miles
Clouds Mostly Cloudy 400 ft
Dew Point 71 °F
Humidity 87%
Rainfall 0.00 in
Snow Depth Not available.
UV 0 out of 12
Pollen 6.00 out of 12
Air Quality Not available.
Flu Activity Not available.
SPECI KLFK 311005Z AUTO 09003KT 7SM BKN004 24/22 A2998 RMK AO2 T02390217

More Conditions Fewer Conditions

Pressure 29.98 in
Visibility 7.0 miles
Clouds Mostly Cloudy 400 ft
Dew Point 71 °F
Humidity 87%
Rainfall 0.00 in
Snow Depth Not available.
UV 0 out of 12
Pollen 6.00 out of 12
Air Quality Not available.
Flu Activity Not available.
SPECI KLFK 311005Z AUTO 09003KT 7SM BKN004 24/22 A2998 RMK AO2 T02390217

More Conditions Fewer Conditions

10-Day Weather Forecast

Almanac

Astronomy

Aug. 31, 2014 Rise Set
Actual Time 6:54 AM CDT 7:43 PM CDT
Civil Twilight 6:29 AM CDT 8:08 PM CDT
Nautical Twilight 6:00 AM CDT 8:37 PM CDT
Astronomical Twilight 5:30 AM CDT 9:07 PM CDT
Moon 12:18 PM CDT 11:23 PM CDT
Length of Visible Light 13h 38m
Length of Day
12h 49m
Tomorrow will be 1m 50s shorter.
Waxing Crescent, 29% of the Moon is Illuminated
Today
Waxing Crescent
Sep 2
First Quarter
Sep 8
Full
Sep 15
Last Quarter
Sep 24
New

Today's Extremes

State Highs State Lows

Community

WunderPhotos

Upload Photos

1,748,834 photos uploaded!

Nearby

Snow Depth

Station Depth Elevation
No new snow has been reported.

Earthquake Activity

City Distance Mag. Time & Date
No recent earthquake activity has been reported nearby.
Minimum magnitude displayed is 2.5.

Coastal Water Temperatures

Place Temperature
No Stations Reporting

Nearby Weather Stations